Terminal Aerodrome Forecast
Issued by NWS Tampa Bay Area, FL

Home | Current Version | Previous Version | Text Only | Print | Product List | Glossary On
Versions: 1 2 3 4 5 6 7 8 9 10 11 12
000
FTUS42 KTBW 191730
TAFSRQ
TAF
KSRQ 191730Z 1918/2018 27006KT P6SM FEW040 SCT200
     FM192300 31007KT P6SM FEW150 SCT200
     FM200200 01004KT P6SM FEW070 SCT200
     FM200500 07004KT P6SM FEW020 SCT200=

USA.gov is the U.S. government's official web portal to all federal, state and local government web resources and services.